Time;durP1;ratioP1;P1;durP2;ratioP2;P2;SDS_P1;SDS_P2;PMS_P1;PMS_P2;Temp;Humidity;BMP_temperature;BMP_pressure;BME280_temperature;BME280_humidity;BME280_pressure;Samples;Min_cycle;Max_cycle;Signal;HPM_P1;HPM_P2
2021/07/02 00:01:37;;;;;;;6.70;3.40;;;;;;;13.55;92.00;98871.53;4994574;28;20048;-68
2021/07/02 00:04:04;;;;;;;10.35;4.00;;;;;;;13.62;91.75;98891.31;4994445;28;20026;-68
2021/07/02 00:06:29;;;;;;;7.25;3.08;;;;;;;13.61;92.20;98891.56;4994557;28;20041;-67
2021/07/02 00:08:54;;;;;;;10.75;3.70;;;;;;;13.46;92.96;98897.31;4986050;28;20026;-68
2021/07/02 00:11:20;;;;;;;7.82;3.53;;;;;;;13.43;93.18;98893.16;4980423;28;20026;-68
2021/07/02 00:13:45;;;;;;;9.30;3.78;;;;;;;13.36;93.38;98898.66;4974996;28;20487;-68
2021/07/02 00:16:11;;;;;;;7.10;3.50;;;;;;;13.27;92.97;98861.91;4980753;28;20025;-69
2021/07/02 00:18:36;;;;;;;6.57;3.20;;;;;;;13.37;92.82;98885.88;4992948;28;20045;-68
2021/07/02 00:21:02;;;;;;;6.05;3.58;;;;;;;13.32;93.05;98891.13;4989849;28;20392;-68
2021/07/02 00:23:27;;;;;;;11.70;4.10;;;;;;;13.31;93.60;98894.91;4992461;28;20113;-68
2021/07/02 00:25:52;;;;;;;10.57;3.97;;;;;;;13.32;93.28;98891.13;4994097;28;20109;-68
2021/07/02 00:28:18;;;;;;;7.22;3.80;;;;;;;13.34;93.29;98895.31;4992859;28;20037;-68
2021/07/02 00:30:43;;;;;;;6.68;3.88;;;;;;;13.01;93.51;98862.88;4985600;28;20026;-68
2021/07/02 00:33:09;;;;;;;8.70;3.85;;;;;;;13.21;93.76;98891.81;4980398;28;20018;-68
2021/07/02 00:35:34;;;;;;;10.60;4.05;;;;;;;13.07;94.26;98881.03;4993001;28;20033;-68
2021/07/02 00:38:00;;;;;;;7.63;3.67;;;;;;;13.10;94.22;98888.75;4993099;28;20068;-68
2021/07/02 00:40:25;;;;;;;5.82;3.83;;;;;;;13.21;93.94;98879.06;4992976;28;20085;-68
2021/07/02 00:42:50;;;;;;;6.07;3.58;;;;;;;13.06;94.36;98884.78;4991902;28;22148;-68
2021/07/02 00:45:16;;;;;;;5.68;3.72;;;;;;;12.99;94.73;98885.84;4992741;28;20532;-68
2021/07/02 00:47:41;;;;;;;8.07;4.60;;;;;;;13.04;95.05;98883.31;4993533;28;20028;-69
2021/07/02 00:50:07;;;;;;;6.25;3.65;;;;;;;13.13;94.38;98879.31;4992746;28;20032;-69
2021/07/02 00:52:33;;;;;;;7.15;4.07;;;;;;;13.08;94.63;98879.13;4992546;28;20044;-68
2021/07/02 00:54:58;;;;;;;5.90;3.60;;;;;;;13.12;94.38;98872.19;4992921;28;20105;-68
2021/07/02 00:57:25;;;;;;;12.48;4.13;;;;;;;12.83;94.84;98854.59;4993333;28;20041;-68
2021/07/02 00:59:50;;;;;;;7.88;4.25;;;;;;;12.93;94.91;98879.41;4993181;28;20029;-68
2021/07/02 01:02:16;;;;;;;11.05;3.97;;;;;;;12.98;94.83;98879.59;4992597;28;20018;-68
2021/07/02 01:04:42;;;;;;;8.82;3.63;;;;;;;13.03;94.88;98877.06;4992958;28;20031;-68
2021/07/02 01:07:10;;;;;;;6.85;3.78;;;;;;;13.01;95.07;98889.19;4992221;28;20410;-68
2021/07/02 01:09:35;;;;;;;11.07;4.10;;;;;;;13.09;94.81;98880.78;4992191;28;20029;-68
2021/07/02 01:12:02;;;;;;;5.55;3.55;;;;;;;13.18;94.78;98884.06;4991481;28;20034;-68
2021/07/02 01:14:27;;;;;;;8.98;3.70;;;;;;;13.08;94.49;98879.97;4992400;28;20037;-68
2021/07/02 01:16:55;;;;;;;8.20;3.83;;;;;;;13.30;94.34;98882.38;4993216;28;20026;-68
2021/07/02 01:19:21;;;;;;;5.63;3.50;;;;;;;13.30;93.38;98879.66;4992218;28;20041;-68
2021/07/02 01:21:46;;;;;;;7.03;4.03;;;;;;;13.22;93.98;98880.72;4991465;28;20034;-68
2021/07/02 01:24:11;;;;;;;6.80;3.28;;;;;;;13.15;94.15;98874.47;4992188;28;20038;-68
2021/07/02 01:26:37;;;;;;;6.38;3.70;;;;;;;13.17;94.79;98872.38;4992087;28;20025;-68
2021/07/02 01:29:03;;;;;;;6.28;3.83;;;;;;;13.27;93.99;98878.19;4987809;28;20038;-69
2021/07/02 01:31:28;;;;;;;7.93;3.50;;;;;;;13.33;93.54;98869.16;4991958;28;20404;-68
2021/07/02 01:33:54;;;;;;;6.47;3.85;;;;;;;13.35;93.71;98879.81;4992227;28;20026;-68
2021/07/02 01:36:23;;;;;;;10.70;4.32;;;;;;;13.37;92.85;98873.13;4991847;28;20022;-68
2021/07/02 01:38:49;;;;;;;;;;;;;;;13.32;93.36;98875.66;4992832;28;20131;-69
2021/07/02 01:41:14;;;;;;;7.88;3.75;;;;;;;13.41;93.09;98881.66;4992103;28;19983;-68
2021/07/02 01:43:40;;;;;;;9.02;3.58;;;;;;;13.32;92.65;98866.69;4990904;28;20054;-68
2021/07/02 01:46:05;;;;;;;9.88;4.05;;;;;;;13.23;92.68;98852.50;4991149;28;20029;-69
2021/07/02 01:48:31;;;;;;;8.73;4.07;;;;;;;13.37;93.16;98880.44;4992841;28;20058;-68
2021/07/02 01:50:56;;;;;;;8.15;3.63;;;;;;;13.41;92.88;98875.41;4990930;28;20050;-68
2021/07/02 01:53:22;;;;;;;7.20;4.40;;;;;;;13.44;92.73;98877.66;4991753;28;20484;-68
2021/07/02 01:55:48;;;;;;;8.20;3.75;;;;;;;13.36;92.83;98867.91;4991184;28;20365;-68
2021/07/02 01:58:13;;;;;;;7.70;3.80;;;;;;;13.37;92.67;98881.28;4992013;28;20034;-68
2021/07/02 02:00:39;;;;;;;8.68;3.65;;;;;;;13.54;92.02;98872.56;4991954;28;20022;-68
2021/07/02 02:03:04;;;;;;;8.75;3.88;;;;;;;13.25;92.29;98853.09;4992251;28;20041;-68
2021/07/02 02:05:29;;;;;;;11.40;4.07;;;;;;;13.34;93.32;98881.72;4990864;28;20026;-68
2021/07/02 02:07:55;;;;;;;8.18;4.18;;;;;;;13.22;93.44;98875.28;4992321;28;20030;-68
2021/07/02 02:10:20;;;;;;;9.75;4.15;;;;;;;13.14;94.16;98870.09;4992189;28;20424;-68
2021/07/02 02:12:45;;;;;;;8.82;4.18;;;;;;;13.10;93.85;98877.03;4991995;28;20037;-68
2021/07/02 02:15:11;;;;;;;7.05;4.22;;;;;;;13.00;94.02;98871.25;4991450;28;20476;-68
2021/07/02 02:17:37;;;;;;;8.35;4.60;;;;;;;12.92;93.47;98859.59;4991309;28;20097;-68
2021/07/02 02:20:07;;;;;;;9.48;4.25;;;;;;;12.96;93.70;98878.16;4992706;28;20431;-68
2021/07/02 02:22:33;;;;;;;8.32;4.38;;;;;;;12.90;93.54;98883.41;4993318;28;20026;-68
2021/07/02 02:24:59;;;;;;;8.55;4.53;;;;;;;12.71;94.29;98860.72;4989438;28;20092;-68
2021/07/02 02:27:24;;;;;;;6.57;3.92;;;;;;;12.76;94.45;98876.38;4995637;28;20484;-68
2021/07/02 02:29:50;;;;;;;10.05;5.00;;;;;;;12.71;94.84;98882.44;4996029;28;20026;-68
2021/07/02 02:32:15;;;;;;;9.70;4.55;;;;;;;12.60;95.84;98874.97;4995815;28;20563;-68
2021/07/02 02:34:40;;;;;;;11.30;4.18;;;;;;;12.61;96.03;98873.09;4994164;28;20030;-68
2021/07/02 02:37:06;;;;;;;9.23;4.47;;;;;;;12.54;96.43;98877.72;4996239;28;20018;-68
2021/07/02 02:39:31;;;;;;;9.27;4.65;;;;;;;12.23;96.02;98852.13;4995608;28;20392;-68
2021/07/02 02:41:56;;;;;;;9.90;4.75;;;;;;;12.48;96.42;98874.81;4995530;28;20093;-68
2021/07/02 02:44:22;;;;;;;8.48;4.90;;;;;;;12.45;96.58;98872.53;4994320;28;20022;-67
2021/07/02 02:46:47;;;;;;;11.70;4.95;;;;;;;12.44;96.00;98880.84;4994208;28;20030;-68
2021/07/02 02:49:13;;;;;;;11.13;5.90;;;;;;;12.36;96.53;98875.66;4995256;28;20046;-68
2021/07/02 02:51:38;;;;;;;15.52;4.60;;;;;;;12.36;96.18;98887.34;4995309;28;20094;-66
2021/07/02 02:54:03;;;;;;;7.57;4.57;;;;;;;12.37;95.15;98867.31;4995316;28;20026;-66
2021/07/02 02:56:29;;;;;;;10.73;5.60;;;;;;;12.47;95.19;98867.72;4994594;28;20030;-66
2021/07/02 02:58:54;;;;;;;14.70;5.22;;;;;;;12.41;94.99;98862.28;4994449;28;20022;-66
2021/07/02 03:01:20;;;;;;;8.07;4.35;;;;;;;12.45;95.24;98868.97;4995297;28;20112;-66
2021/07/02 03:03:45;;;;;;;7.20;4.18;;;;;;;12.43;94.64;98881.91;4995329;28;20632;-66
2021/07/02 03:06:11;;;;;;;6.97;4.32;;;;;;;12.48;94.96;98877.50;4994540;28;20041;-66
2021/07/02 03:08:37;;;;;;;10.07;4.63;;;;;;;12.65;93.56;98874.31;4993985;28;20034;-66
2021/07/02 03:11:03;;;;;;;10.05;4.82;;;;;;;12.66;93.41;98871.41;4993606;28;20409;-66
2021/07/02 03:13:28;;;;;;;9.40;4.72;;;;;;;12.59;93.17;98872.47;4992908;28;20026;-66
2021/07/02 03:15:53;;;;;;;9.13;4.68;;;;;;;12.71;93.15;98868.03;4987232;28;20023;-66
2021/07/02 03:18:19;;;;;;;8.75;4.15;;;;;;;12.66;92.86;98868.69;4993811;28;20105;-66
2021/07/02 03:20:44;;;;;;;8.35;4.40;;;;;;;12.67;92.49;98873.06;4994976;28;20488;-66
2021/07/02 03:23:10;;;;;;;8.13;4.88;;;;;;;12.70;92.30;98877.22;4994235;28;20032;-66
2021/07/02 03:25:35;;;;;;;8.27;4.35;;;;;;;12.71;92.37;98881.63;4993546;28;20456;-66
2021/07/02 03:28:00;;;;;;;9.25;4.18;;;;;;;12.78;92.46;98885.13;4993842;28;20041;-66
2021/07/02 03:30:26;;;;;;;8.32;4.78;;;;;;;12.82;91.96;98883.66;4992783;28;20054;-66
2021/07/02 03:32:51;;;;;;;11.10;4.68;;;;;;;12.80;92.21;98887.63;4994153;28;20028;-66
2021/07/02 03:35:16;;;;;;;10.18;4.32;;;;;;;12.74;92.66;98889.31;4993721;28;20038;-67
2021/07/02 03:37:42;;;;;;;9.82;4.57;;;;;;;12.73;92.97;98890.34;4994022;28;20105;-66
2021/07/02 03:40:09;;;;;;;8.00;4.22;;;;;;;12.72;92.92;98892.25;4993651;28;20034;-66
2021/07/02 03:42:35;;;;;;;8.95;4.60;;;;;;;12.64;93.12;98867.22;4992875;28;20026;-66
2021/07/02 03:45:00;;;;;;;7.70;4.32;;;;;;;12.71;92.96;98904.16;4992809;28;20049;-66
2021/07/02 03:47:25;;;;;;;7.22;4.10;;;;;;;12.80;92.89;98896.59;4993181;28;20387;-67
2021/07/02 03:49:51;;;;;;;6.90;4.30;;;;;;;12.87;91.89;98894.69;4993429;28;20026;-66
2021/07/02 03:52:16;;;;;;;7.35;4.20;;;;;;;12.81;92.67;98895.56;4993031;28;20022;-66
2021/07/02 03:54:41;;;;;;;10.73;4.30;;;;;;;12.78;93.79;98903.28;4993005;28;20042;-66
2021/07/02 03:57:13;;;;;;;13.15;3.75;;;;;;;12.77;94.28;98901.63;4992882;28;20073;-66
2021/07/02 03:59:43;;;;;;;9.02;4.70;;;;;;;12.70;94.86;98890.78;4993465;28;20062;-66
2021/07/02 04:02:09;;;;;;;9.23;4.00;;;;;;;12.75;94.79;98896.41;4993699;28;20034;-66
2021/07/02 04:04:36;;;;;;;10.88;4.63;;;;;;;12.78;94.66;98898.69;4994214;28;20026;-66
2021/07/02 04:07:05;;;;;;;7.22;4.55;;;;;;;12.65;94.41;98880.59;4993030;28;20026;-66
2021/07/02 04:09:32;;;;;;;10.10;4.30;;;;;;;12.75;94.32;98890.16;4993285;28;20077;-66
2021/07/02 04:11:58;;;;;;;9.55;5.00;;;;;;;12.85;93.83;98901.38;4993668;28;20046;-67
2021/07/02 04:14:23;;;;;;;12.70;4.35;;;;;;;12.80;94.27;98899.31;4993993;28;20449;-67
2021/07/02 04:16:49;;;;;;;10.57;4.82;;;;;;;12.69;94.07;98889.97;4993510;28;20022;-67
2021/07/02 04:19:14;;;;;;;8.25;5.20;;;;;;;12.73;94.74;98903.94;4993879;28;20057;-67
2021/07/02 04:21:39;;;;;;;9.02;4.30;;;;;;;12.81;93.98;98909.16;4992367;28;20058;-67
2021/07/02 04:24:05;;;;;;;11.20;4.57;;;;;;;12.88;94.13;98909.94;4994027;28;20113;-67
2021/07/02 04:26:30;;;;;;;8.60;4.45;;;;;;;12.98;93.62;98911.38;4993460;28;20022;-66
2021/07/02 04:28:55;;;;;;;10.13;4.60;;;;;;;13.07;92.85;98901.91;4993507;28;20041;-69
2021/07/02 04:31:21;;;;;;;9.57;4.50;;;;;;;13.17;91.92;98910.41;5004803;28;20029;-71
2021/07/02 04:33:46;;;;;;;7.22;3.92;;;;;;;13.15;91.79;98879.91;5006796;28;20080;-70
2021/07/02 04:36:12;;;;;;;11.82;4.22;;;;;;;13.55;91.18;98907.72;4993584;28;20018;-71
2021/07/02 04:38:37;;;;;;;8.80;4.50;;;;;;;13.53;88.66;98876.34;4993708;28;20022;-71
2021/07/02 04:41:02;;;;;;;6.60;4.40;;;;;;;13.95;87.78;98904.66;4993672;28;20088;-69
2021/07/02 04:43:28;;;;;;;9.70;4.00;;;;;;;13.93;87.56;98897.78;4992387;28;20120;-69
2021/07/02 04:45:53;;;;;;;6.82;4.30;;;;;;;14.15;86.46;98904.50;4993500;28;20157;-70
2021/07/02 04:48:18;;;;;;;15.20;4.10;;;;;;;14.28;86.16;98908.97;4991904;28;20037;-71
2021/07/02 04:50:43;;;;;;;8.35;4.25;;;;;;;14.42;85.29;98912.38;4991754;28;20073;-68
2021/07/02 04:53:09;;;;;;;10.60;4.45;;;;;;;14.40;84.40;98906.31;4992936;28;20516;-69
2021/07/02 04:55:34;;;;;;;9.93;4.63;;;;;;;14.47;82.32;98894.31;4992956;28;20018;-68
2021/07/02 04:58:00;;;;;;;9.32;5.35;;;;;;;14.77;80.19;98909.09;4993351;28;20097;-69
2021/07/02 05:00:26;;;;;;;9.82;4.45;;;;;;;14.87;79.35;98912.09;4985688;28;20029;-72
2021/07/02 05:02:52;;;;;;;6.40;4.32;;;;;;;14.89;78.85;98919.00;4993131;28;20050;-72
2021/07/02 05:05:17;;;;;;;8.90;4.63;;;;;;;14.85;78.36;98879.63;4992105;28;20120;-71
2021/07/02 05:07:43;;;;;;;12.82;4.97;;;;;;;14.86;77.81;98892.22;5003346;28;20037;-71
2021/07/02 05:10:08;;;;;;;9.93;4.78;;;;;;;14.76;78.01;98893.81;5012929;28;20033;-72
2021/07/02 05:12:34;;;;;;;7.22;4.45;;;;;;;14.68;77.96;98894.94;5008435;28;20034;-71
2021/07/02 05:14:59;;;;;;;8.77;4.50;;;;;;;14.76;78.48;98918.31;4993178;28;20030;-72
2021/07/02 05:17:25;;;;;;;7.05;4.80;;;;;;;14.74;79.08;98917.72;4991920;28;20022;-71
2021/07/02 05:19:51;;;;;;;8.65;4.72;;;;;;;14.75;77.97;98900.31;4993143;28;20480;-73
2021/07/02 05:22:18;;;;;;;7.72;4.28;;;;;;;14.84;78.49;98920.75;4990260;28;20034;-66
2021/07/02 05:24:44;;;;;;;7.55;4.38;;;;;;;14.77;78.93;98930.88;4982501;28;20105;-65
2021/07/02 05:27:10;;;;;;;9.35;4.45;;;;;;;14.80;79.50;98919.50;4992520;28;20114;-68
2021/07/02 05:29:35;;;;;;;8.13;4.68;;;;;;;14.96;78.67;98913.47;4992291;28;20093;-68
2021/07/02 05:32:01;;;;;;;9.77;5.03;;;;;;;15.26;77.30;98926.28;4989675;28;20026;-68
2021/07/02 05:34:27;;;;;;;9.23;4.43;;;;;;;15.34;77.18;98923.22;4983021;28;20077;-67
2021/07/02 05:36:53;;;;;;;9.70;5.28;;;;;;;15.33;76.34;98929.75;4989879;28;20046;-71
2021/07/02 05:39:18;;;;;;;7.25;4.68;;;;;;;15.38;76.75;98924.44;4992176;28;20038;-66
2021/07/02 05:41:43;;;;;;;9.98;4.78;;;;;;;15.40;76.36;98930.47;4991681;28;20026;-66
2021/07/02 05:44:08;;;;;;;7.97;5.07;;;;;;;15.38;76.52;98934.47;4991589;28;20109;-67
2021/07/02 05:46:34;;;;;;;10.45;4.80;;;;;;;15.47;76.90;98936.66;4992640;28;20041;-67
2021/07/02 05:48:59;;;;;;;7.45;4.72;;;;;;;15.70;76.51;98929.66;4992498;28;20022;-64
2021/07/02 05:51:24;;;;;;;15.55;4.72;;;;;;;15.64;76.35;98908.72;4990864;28;20026;-74
2021/07/02 05:53:50;;;;;;;8.50;4.68;;;;;;;15.48;76.76;98894.72;4986441;28;20030;-73
2021/07/02 05:56:15;;;;;;;12.82;4.72;;;;;;;15.36;76.89;98914.81;4992995;28;20022;-69
2021/07/02 05:58:40;;;;;;;10.65;4.70;;;;;;;15.37;76.44;98902.84;5007252;28;20033;-69
2021/07/02 06:01:06;;;;;;;9.40;5.00;;;;;;;15.43;76.00;98940.94;5010749;28;20022;-68
2021/07/02 06:03:32;;;;;;;9.10;4.70;;;;;;;15.25;77.05;98935.53;4991538;28;20073;-67
2021/07/02 06:05:57;;;;;;;7.57;4.75;;;;;;;15.35;76.41;98943.97;4990645;28;20117;-71
2021/07/02 06:08:22;;;;;;;9.63;4.45;;;;;;;15.50;75.89;98946.28;4990617;28;20022;-70
2021/07/02 06:10:48;;;;;;;7.18;4.32;;;;;;;15.47;75.63;98922.19;4976877;28;20034;-72
2021/07/02 06:13:13;;;;;;;6.90;4.72;;;;;;;15.86;75.03;98942.63;4989735;28;20037;-71
2021/07/02 06:15:38;;;;;;;10.73;5.35;;;;;;;15.88;74.75;98953.31;4991628;28;20041;-70
2021/07/02 06:18:06;;;;;;;8.95;4.93;;;;;;;16.14;74.52;98954.78;4990561;28;20501;-71
2021/07/02 06:20:32;;;;;;;8.60;4.95;;;;;;;16.34;73.42;98955.22;4991943;28;20034;-71
2021/07/02 06:22:57;;;;;;;9.93;4.85;;;;;;;16.65;72.03;98950.47;4989205;28;20077;-71
2021/07/02 06:25:22;;;;;;;10.15;4.57;;;;;;;16.35;73.03;98948.72;4990114;28;20049;-71
2021/07/02 06:27:47;;;;;;;6.93;4.57;;;;;;;16.40;72.44;98954.31;4991361;28;20034;-70
2021/07/02 06:30:14;;;;;;;7.15;4.70;;;;;;;16.69;71.63;98951.69;4991553;28;20453;-71
2021/07/02 06:32:39;;;;;;;9.70;5.07;;;;;;;17.08;71.36;98952.81;4990705;28;20046;-71
2021/07/02 06:35:05;;;;;;;7.13;4.75;;;;;;;17.29;70.43;98954.06;4992045;28;20022;-72
2021/07/02 06:37:30;;;;;;;11.25;5.00;;;;;;;17.34;69.48;98947.00;4990010;28;20444;-70
2021/07/02 06:39:55;;;;;;;8.60;4.35;;;;;;;17.56;69.29;98947.16;4991870;28;20346;-71
2021/07/02 06:42:21;;;;;;;6.82;4.25;;;;;;;17.90;67.19;98953.56;4989936;28;20481;-72
2021/07/02 06:44:46;;;;;;;10.75;4.80;;;;;;;18.00;67.13;98944.66;4991324;28;20026;-71
2021/07/02 06:47:11;;;;;;;7.15;4.57;;;;;;;18.09;66.39;98934.97;4991288;28;20065;-71
2021/07/02 06:49:39;;;;;;;9.30;4.82;;;;;;;18.61;64.74;98951.94;4991330;28;20030;-74
2021/07/02 06:52:05;;;;;;;7.47;4.57;;;;;;;19.10;63.75;98955.88;4986232;28;20045;-71
2021/07/02 06:54:31;;;;;;;8.73;4.93;;;;;;;19.97;61.04;98954.13;4981840;28;20076;-68
2021/07/02 06:57:03;;;;;;;6.30;4.53;;;;;;;20.51;59.39;98965.81;4990116;28;20038;-68
2021/07/02 06:59:32;;;;;;;12.30;7.05;;;;;;;20.82;59.52;98954.19;4991536;28;20022;-69
2021/07/02 07:01:59;;;;;;;7.13;3.97;;;;;;;21.91;56.40;98960.66;4991358;28;20481;-71
2021/07/02 07:04:28;;;;;;;8.38;4.40;;;;;;;21.94;55.43;98946.31;4993807;28;20042;-73
2021/07/02 07:06:54;;;;;;;6.63;3.83;;;;;;;23.03;53.35;98939.59;4993018;28;20033;-74
2021/07/02 07:09:19;;;;;;;6.28;3.83;;;;;;;23.77;51.09;98941.44;4991807;28;20026;-72
2021/07/02 07:11:44;;;;;;;6.50;3.53;;;;;;;25.18;47.47;98924.06;4994917;28;20053;-73
2021/07/02 07:14:10;;;;;;;7.45;3.90;;;;;;;24.23;48.19;98951.31;4989314;28;20444;-71
2021/07/02 07:16:35;;;;;;;6.05;3.88;;;;;;;26.39;44.69;98931.69;4994188;28;20105;-69
2021/07/02 07:19:00;;;;;;;9.32;3.95;;;;;;;26.85;43.60;98935.59;4992250;28;20038;-71
2021/07/02 07:21:25;;;;;;;10.05;3.88;;;;;;;27.63;41.58;98925.34;4991379;28;20026;-71
2021/07/02 07:23:51;;;;;;;5.07;3.80;;;;;;;28.69;39.52;98933.34;5000776;28;20030;-70
2021/07/02 07:26:17;;;;;;;5.82;3.70;;;;;;;29.14;39.43;98936.03;4984776;28;20023;-72
2021/07/02 07:28:43;;;;;;;7.47;3.28;;;;;;;29.92;37.28;98936.97;4994336;28;20030;-71
2021/07/02 07:31:09;;;;;;;4.60;3.20;;;;;;;29.95;37.99;98945.81;4994339;28;20058;-71
2021/07/02 07:33:38;;;;;;;5.40;3.55;;;;;;;28.75;38.81;98944.03;4996785;28;20030;-70
2021/07/02 07:36:04;;;;;;;4.97;3.75;;;;;;;26.52;42.29;98952.31;4991856;28;20145;-72
2021/07/02 07:38:29;;;;;;;5.88;3.45;;;;;;;28.84;39.26;98953.22;4996391;28;20578;-71
2021/07/02 07:40:55;;;;;;;6.00;3.20;;;;;;;30.12;36.28;98948.59;5012810;28;20014;-72
2021/07/02 07:43:23;;;;;;;4.03;2.95;;;;;;;28.69;37.23;98916.63;4994624;28;20105;-73
2021/07/02 07:45:49;;;;;;;6.03;3.10;;;;;;;29.11;37.53;98939.44;4994571;28;20587;-71
2021/07/02 07:48:14;;;;;;;7.18;4.15;;;;;;;27.94;38.79;98944.13;4994518;28;20078;-72
2021/07/02 07:50:44;;;;;;;5.05;3.70;;;;;;;28.52;37.54;98946.03;4993956;28;20054;-72
2021/07/02 07:53:12;;;;;;;5.45;3.50;;;;;;;25.94;41.33;98945.22;4990836;28;20404;-72
2021/07/02 07:55:38;;;;;;;4.57;3.20;;;;;;;29.47;35.30;98936.41;4993028;28;20038;-71
2021/07/02 07:58:03;;;;;;;5.43;3.17;;;;;;;30.93;33.52;98936.63;4992624;28;20277;-68
2021/07/02 08:00:29;;;;;;;5.00;2.97;;;;;;;29.25;35.55;98929.00;4991978;28;20422;-73
2021/07/02 08:02:55;;;;;;;4.45;2.90;;;;;;;27.17;39.52;98931.06;4997081;28;20015;-67
2021/07/02 08:05:21;;;;;;;5.07;3.28;;;;;;;26.36;41.34;98937.84;4992886;28;20046;-68
2021/07/02 08:07:47;;;;;;;5.55;3.55;;;;;;;26.64;41.43;98941.50;4992318;28;20092;-67
2021/07/02 08:10:14;;;;;;;85.53;9.45;;;;;;;25.27;44.30;98950.00;4993298;28;20066;-67
2021/07/02 08:12:40;;;;;;;26.92;4.55;;;;;;;24.67;45.98;98956.75;4991575;28;20026;-66
2021/07/02 08:15:08;;;;;;;6.65;3.28;;;;;;;23.45;46.22;98954.84;4991358;28;20100;-67
2021/07/02 08:17:34;;;;;;;6.88;3.78;;;;;;;22.74;49.06;98963.13;4992412;28;20077;-68
2021/07/02 08:20:00;;;;;;;6.60;3.72;;;;;;;22.30;50.21;98958.22;4992290;28;20046;-67
2021/07/02 08:22:26;;;;;;;7.20;4.40;;;;;;;21.86;49.29;98952.38;4992681;28;20084;-68
2021/07/02 08:24:52;;;;;;;7.93;3.88;;;;;;;23.45;47.34;98961.22;4993562;28;20223;-67
2021/07/02 08:27:19;;;;;;;5.15;3.50;;;;;;;25.88;40.67;98934.47;4991342;28;20449;-67
2021/07/02 08:29:44;;;;;;;5.85;3.25;;;;;;;26.96;40.98;98961.19;4993044;28;20022;-66
2021/07/02 08:32:10;;;;;;;4.63;3.40;;;;;;;26.05;41.09;98958.91;4989535;28;20030;-66
2021/07/02 08:34:35;;;;;;;5.68;3.63;;;;;;;24.23;42.57;98970.66;4992231;28;20026;-66
2021/07/02 08:37:01;;;;;;;5.18;3.40;;;;;;;24.02;45.49;98972.78;4992564;28;20025;-66
2021/07/02 08:39:26;;;;;;;5.10;3.60;;;;;;;23.19;47.68;98968.81;4992329;28;20034;-66
2021/07/02 08:41:51;;;;;;;7.32;3.50;;;;;;;22.62;50.09;98975.56;4991555;28;20030;-64
2021/07/02 08:44:17;;;;;;;4.82;3.65;;;;;;;22.28;50.19;98978.88;4991705;28;20105;-65
2021/07/02 08:46:46;;;;;;;5.72;3.42;;;;;;;23.71;47.72;98972.13;4988205;28;20035;-66
2021/07/02 08:49:12;;;;;;;;;;;;;;;27.51;40.33;98964.00;4987357;28;20361;-66
2021/07/02 08:51:37;;;;;;;6.13;3.70;;;;;;;30.87;33.97;98959.53;4992269;28;19914;-67
2021/07/02 08:54:03;;;;;;;6.43;3.40;;;;;;;30.78;34.02;98965.94;4992754;28;20064;-67
2021/07/02 08:56:29;;;;;;;4.18;3.17;;;;;;;30.64;33.01;98962.50;4992281;28;20077;-69
2021/07/02 08:58:54;;;;;;;8.02;3.28;;;;;;;28.16;37.42;98969.19;4992069;28;20034;-67
2021/07/02 09:01:38;;;;;;;11.02;3.30;;;;;;;26.07;41.03;98967.72;4992358;28;20034;-65
2021/07/02 09:04:23;;;;;;;5.57;3.30;;;;;;;24.71;43.85;98977.19;4997047;28;20033;-67
2021/07/02 09:07:05;;;;;;;5.90;3.72;;;;;;;23.80;44.98;98982.31;4991362;28;20160;-68
2021/07/02 09:09:46;;;;;;;6.75;3.70;;;;;;;22.63;46.97;98980.78;4991002;28;20391;-65
2021/07/02 09:12:13;;;;;;;6.00;3.55;;;;;;;22.47;45.11;98990.16;4985438;28;20392;-67
2021/07/02 09:14:38;;;;;;;4.88;3.88;;;;;;;22.20;45.50;98987.69;4989967;28;20026;-67
2021/07/02 09:17:11;;;;;;;6.35;4.22;;;;;;;22.60;46.51;98995.13;4985257;28;20026;-66
2021/07/02 09:19:37;;;;;;;5.72;3.70;;;;;;;25.12;42.90;98982.25;4985454;28;20063;-66
2021/07/02 09:22:16;;;;;;;8.13;4.20;;;;;;;28.81;36.19;98981.72;4991401;28;20030;-67
2021/07/02 09:24:47;;;;;;;5.75;3.50;;;;;;;29.18;32.73;98976.81;4982684;28;20526;-68
2021/07/02 09:27:29;;;;;;;5.18;3.63;;;;;;;28.23;35.02;98984.59;4992005;28;20034;-67
2021/07/02 09:30:12;;;;;;;6.22;4.80;;;;;;;28.71;35.95;98984.78;4992126;28;20116;-68
2021/07/02 09:32:43;;;;;;;6.20;3.78;;;;;;;27.45;38.04;98970.78;4991304;28;20029;-69
2021/07/02 09:35:11;;;;;;;76.15;10.25;;;;;;;27.32;38.82;98983.53;4992289;28;20045;-65
2021/07/02 09:37:43;;;;;;;5.93;3.65;;;;;;;28.65;36.63;98988.03;4991485;28;20039;-70
2021/07/02 09:40:18;;;;;;;5.18;3.60;;;;;;;30.90;33.63;98975.63;4992002;28;20453;-70
2021/07/02 09:42:43;;;;;;;5.10;3.60;;;;;;;30.06;33.34;98973.06;4989455;28;20050;-70
2021/07/02 09:45:27;;;;;;;6.03;3.67;;;;;;;29.85;32.81;98975.69;4990097;28;20092;-70
2021/07/02 09:47:53;;;;;;;5.95;3.58;;;;;;;28.54;32.78;98979.94;4991990;28;20031;-71
2021/07/02 09:50:29;;;;;;;4.82;3.30;;;;;;;30.18;31.22;98983.56;4990986;28;20037;-71
2021/07/02 09:52:59;;;;;;;5.53;3.65;;;;;;;29.81;31.89;98982.25;4991982;28;20062;-70
2021/07/02 09:55:30;;;;;;;4.80;3.38;;;;;;;31.88;30.31;98973.59;5007083;28;20065;-71
2021/07/02 09:58:09;;;;;;;5.55;3.78;;;;;;;32.46;29.20;98990.56;4988384;28;20052;-70
2021/07/02 10:00:38;;;;;;;;;;;;;;;32.22;29.63;98980.91;4992829;28;20105;-70
2021/07/02 10:03:05;;;;;;;7.60;3.60;;;;;;;28.58;32.97;98983.75;4991361;28;19920;-71
2021/07/02 10:05:42;;;;;;;6.35;3.92;;;;;;;26.69;35.15;98990.56;4992314;28;20105;-71
2021/07/02 10:08:07;;;;;;;5.25;3.70;;;;;;;28.51;33.26;98976.97;4991890;28;20030;-71
2021/07/02 10:10:33;;;;;;;5.47;3.88;;;;;;;29.39;32.86;98979.03;4992643;28;20022;-70
2021/07/02 10:12:58;;;;;;;5.43;3.95;;;;;;;30.01;31.71;98976.03;4989312;28;20037;-70
2021/07/02 10:15:26;;;;;;;7.10;3.60;;;;;;;30.31;31.98;98981.78;4991816;28;20022;-71
2021/07/02 10:17:55;;;;;;;5.85;3.80;;;;;;;31.37;29.77;98967.19;4990490;28;20717;-70
2021/07/02 10:20:21;;;;;;;4.75;3.63;;;;;;;29.24;31.08;98977.53;4991201;28;20034;-70
2021/07/02 10:22:47;;;;;;;5.20;4.05;;;;;;;27.21;35.94;98982.13;4990202;28;20393;-71
2021/07/02 10:25:16;;;;;;;7.25;4.00;;;;;;;25.34;37.90;98992.03;4989092;28;20542;-71
2021/07/02 10:27:41;;;;;;;4.75;3.20;;;;;;;24.45;39.20;98990.44;4990818;28;20107;-71
2021/07/02 10:30:08;;;;;;;5.63;3.50;;;;;;;25.11;36.74;98988.91;4990544;28;20109;-69
2021/07/02 10:32:34;;;;;;;5.85;3.30;;;;;;;27.35;34.77;98984.88;4990640;28;20101;-71
2021/07/02 10:35:00;;;;;;;6.03;3.28;;;;;;;28.35;31.58;98957.03;4989614;28;20056;-70
2021/07/02 10:37:26;;;;;;;6.15;3.10;;;;;;;30.06;29.14;98958.31;4990893;28;20480;-70
2021/07/02 10:39:53;;;;;;;4.82;2.70;;;;;;;30.78;29.93;98977.09;4987802;28;20026;-71
2021/07/02 10:42:18;;;;;;;4.57;3.17;;;;;;;26.93;34.88;98967.38;4988932;28;20037;-71
2021/07/02 10:44:53;;;;;;;6.28;3.58;;;;;;;26.05;37.30;98987.44;4992947;28;20030;-71
2021/07/02 10:47:19;;;;;;;4.88;3.53;;;;;;;27.42;34.52;98985.28;4993455;28;20680;-71
2021/07/02 10:49:44;;;;;;;4.68;3.78;;;;;;;29.76;32.90;98991.59;4993344;28;20109;-71
2021/07/02 10:52:19;;;;;;;4.65;3.17;;;;;;;30.75;29.32;98986.13;4994348;28;20056;-70
2021/07/02 10:54:44;;;;;;;4.25;3.00;;;;;;;29.97;28.97;98957.47;4993808;28;20026;-71
2021/07/02 10:57:13;;;;;;;4.10;2.90;;;;;;;31.04;28.75;98990.16;4994575;28;20022;-70
2021/07/02 10:59:38;;;;;;;5.63;3.10;;;;;;;28.70;30.95;98993.47;4994220;28;20080;-71
2021/07/02 11:02:09;;;;;;;5.22;3.50;;;;;;;30.14;29.26;98989.00;4993103;28;20038;-70
2021/07/02 11:04:45;;;;;;;3.88;2.72;;;;;;;32.06;28.47;98994.72;4994151;28;20061;-71
2021/07/02 11:07:13;;;;;;;4.90;3.10;;;;;;;31.06;27.81;98987.88;4988338;28;20022;-70
2021/07/02 11:09:54;;;;;;;4.38;3.03;;;;;;;29.48;31.10;98994.63;4993308;28;20084;-71
2021/07/02 11:12:41;;;;;;;4.43;2.90;;;;;;;30.81;30.65;98995.19;4993554;28;20030;-69
2021/07/02 11:15:10;;;;;;;5.65;3.28;;;;;;;32.17;29.12;98989.53;4992957;28;20064;-69
2021/07/02 11:17:36;;;;;;;;;;;;;;;33.29;27.08;98992.31;4993237;28;20057;-69
2021/07/02 11:20:04;;;;;;;3.95;2.65;;;;;;;33.83;25.74;98988.44;4991845;28;20495;-69
2021/07/02 11:22:31;;;;;;;5.43;3.10;;;;;;;33.28;25.87;98973.06;4992021;28;20036;-69
2021/07/02 11:25:06;;;;;;;7.15;3.20;;;;;;;32.83;26.85;98990.72;4990464;28;20053;-69
2021/07/02 11:27:49;;;;;;;7.70;3.30;;;;;;;32.35;25.40;98989.38;4971713;28;20030;-69
2021/07/02 11:30:24;;;;;;;4.63;3.30;;;;;;;31.14;26.96;98989.00;4984142;28;20022;-70
2021/07/02 11:32:51;;;;;;;26.90;4.55;;;;;;;32.65;27.66;98988.13;4992341;28;20056;-69